Time,TemperatureF,DewpointF,PressureIn,WindDirection,WindDirectionDegrees,WindSpeedMPH,WindSpeedGustMPH,Humidity,HourlyPrecipIn,Conditions,Clouds,dailyrainin,SoftwareType,DateUTC
2013-10-09 00:14:00,52.0,43.0,30.24,SSE,157,0.0,0.0,72,0.00,,,0.00,,2013-10-09 04:14:00,
2013-10-09 00:24:00,52.0,43.0,30.24,SSE,157,0.0,0.0,72,0.00,,,0.00,,2013-10-09 04:24:00,
2013-10-09 00:34:00,52.0,43.0,30.24,SSE,157,0.0,0.0,72,0.00,,,0.00,,2013-10-09 04:34:00,
2013-10-09 00:44:00,52.0,43.0,30.24,SSE,157,0.0,0.0,72,0.00,,,0.00,,2013-10-09 04:44:00,
2013-10-09 01:41:00,48.0,41.0,30.24,North,-999,-999.0,-999.0,77,0.00,,,0.00,,2013-10-09 05:41:00,
2013-10-09 01:52:00,48.0,41.0,30.24,North,-999,-999.0,-999.0,77,0.00,,,0.00,,2013-10-09 05:52:00,
2013-10-09 02:12:00,48.0,41.0,30.24,North,-999,-999.0,-999.0,77,0.00,,,0.00,,2013-10-09 06:12:00,
2013-10-09 02:22:00,48.0,41.0,30.24,North,-999,-999.0,-999.0,77,0.00,,,0.00,,2013-10-09 06:22:00,
2013-10-09 02:33:00,48.0,41.0,30.24,North,-999,-999.0,-999.0,77,0.00,,,0.00,,2013-10-09 06:33:00,
2013-10-09 03:42:00,47.0,41.0,30.24,SSE,157,0.0,0.0,80,0.00,,,0.00,,2013-10-09 07:42:00,
2013-10-09 03:52:00,47.0,41.0,30.23,SSE,157,0.0,0.0,80,0.00,,,0.00,,2013-10-09 07:52:00,
2013-10-09 04:23:00,46.0,41.0,30.23,SSE,157,0.0,0.0,81,0.00,,,0.00,,2013-10-09 08:23:00,
2013-10-09 04:42:00,47.0,41.0,30.24,SSE,157,0.0,0.0,81,0.00,,,0.00,,2013-10-09 08:42:00,
2013-10-09 04:53:00,47.0,41.0,30.24,SSE,157,0.0,0.0,81,0.00,,,0.00,,2013-10-09 08:53:00,
2013-10-09 05:02:00,47.0,41.0,30.24,SSE,157,0.0,0.0,81,0.00,,,0.00,,2013-10-09 09:02:00,
2013-10-09 05:22:00,46.0,41.0,30.24,SSE,157,0.0,0.0,81,0.00,,,0.00,,2013-10-09 09:22:00,
2013-10-09 05:43:00,46.0,41.0,30.24,WSW,247,0.0,0.0,81,0.00,,,0.00,,2013-10-09 09:43:00,
2013-10-09 05:53:00,46.0,41.0,30.24,SSE,157,0.0,0.0,81,0.00,,,0.00,,2013-10-09 09:53:00,
2013-10-09 06:23:00,46.0,41.0,30.25,SSE,157,0.0,0.0,81,0.00,,,0.00,,2013-10-09 10:23:00,
2013-10-09 06:43:00,45.0,40.0,30.25,SSE,157,0.0,0.0,81,0.00,,,0.00,,2013-10-09 10:43:00,
2013-10-09 06:53:00,45.0,40.0,30.25,North,-999,-999.0,-999.0,81,0.00,,,0.00,,2013-10-09 10:53:00,
2013-10-09 07:02:00,45.0,40.0,30.25,North,-999,-999.0,-999.0,81,0.00,,,0.00,,2013-10-09 11:02:00,
2013-10-09 07:12:00,45.0,40.0,30.25,North,-999,-999.0,-999.0,81,0.00,,,0.00,,2013-10-09 11:12:00,
2013-10-09 07:22:00,45.0,40.0,30.25,North,-999,-999.0,-999.0,81,0.00,,,0.00,,2013-10-09 11:22:00,
2013-10-09 15:22:00,64.0,46.0,30.22,SSE,157,0.0,0.0,52,0.00,,,0.00,,2013-10-09 19:22:00,
2013-10-09 15:42:00,64.0,45.0,30.21,SE,135,0.0,0.0,51,0.00,,,0.00,,2013-10-09 19:42:00,
2013-10-09 15:53:00,65.0,46.0,30.20,East,90,0.0,0.0,51,0.00,,,0.00,,2013-10-09 19:53:00,
2013-10-09 16:22:00,66.0,47.0,30.20,SE,135,0.0,0.0,51,0.00,,,0.00,,2013-10-09 20:22:00,
2013-10-09 16:43:00,67.0,48.0,30.20,SE,135,0.0,0.0,50,0.00,,,0.00,,2013-10-09 20:43:00,
2013-10-09 16:52:00,68.0,49.0,30.20,ESE,112,0.0,0.0,50,0.00,,,0.00,,2013-10-09 20:52:00,
2013-10-09 17:22:00,70.0,50.0,30.19,SSW,202,0.0,0.0,50,0.00,,,0.00,,2013-10-09 21:22:00,
2013-10-09 17:44:00,70.0,50.0,30.19,North,-999,-999.0,-999.0,50,0.00,,,0.00,,2013-10-09 21:44:00,
2013-10-09 17:53:00,70.0,50.0,30.19,North,-999,-999.0,-999.0,50,0.00,,,0.00,,2013-10-09 21:53:00,
2013-10-09 18:24:00,69.0,50.0,30.19,SSE,157,0.0,0.0,50,0.00,,,0.00,,2013-10-09 22:24:00,
2013-10-09 18:43:00,69.0,50.0,30.18,SSE,157,0.0,0.0,50,0.00,,,0.00,,2013-10-09 22:43:00,
2013-10-09 18:53:00,69.0,50.0,30.19,SSE,157,0.0,0.0,50,0.00,,,0.00,,2013-10-09 22:53:00,
2013-10-09 19:03:00,69.0,50.0,30.19,SSE,157,0.0,0.0,50,0.00,,,0.00,,2013-10-09 23:03:00,
2013-10-09 19:12:00,69.0,50.0,30.19,SSE,157,0.0,0.0,50,0.00,,,0.00,,2013-10-09 23:12:00,
2013-10-09 19:22:00,69.0,50.0,30.19,SSE,157,0.0,0.0,50,0.00,,,0.00,,2013-10-09 23:22:00,